Alford, Indiana
Current Conditions -  °F | °C
As of 6:55 AM on Saturday 20 Dec 2014 (Local Time) from KDCY Reporting Station
Overcast Overcast  
Wind Chill: -1°   Ceiling: 6000
Heat Index: -1°   Visibility: 7mi
Dew Point: -3°   Wind: 0mph
Humidity: 88%   Direction: NA
Pressure: 30.3"   Gusts: NA
Location:  38.4723°N, 87.3105°W
Report Text: KDCY 201255Z AUTO 00000KT 7SM OVC060 M01/M03 A3030 RMK AO2 T10131031
Loading
Personal Weather Stations






























Interactive Weather Map New forecast layout! Learn more

10-Day Weather Forecast

Advertisements
Track Severe Weather on mobile